Hauptseite
METAR-TAF:

METAR-TAF

Flughäfen :

Flughafen Hang Nadim

Batam, Indonesien

Breite: 01-07-15N, Länge: 104-07-07E, Höhe: 38 m

Beobachtung

Neuester Wetterbericht von vor 43 Minuten, um 17:30 UTC
Windstille
Temperatur 27°C
Luftfeuchtigkeit 94%
Luftdruck 1011 hPa
Sichtweite: 7000 m
Leicht bewölkt in der Höhe von 1400 ft

METAR: WIDD 181730Z 00000KT 7000 FEW014 27/26 Q1011 NOSIG

Zeit: 01:13 (18:13 UTC)

Prognose

Neuester Wetterbericht von vor 1 Stunde und 13 Minuten, um 17:00 UTC
Gültige Prognose vom 18 um 18 UTC bis 19 um 18 UTC
Wind kt aus Nord
Sichtweite: 6000 m
Leicht bewölkt in der Höhe von 1400 ft

TAF: WIDD 181700Z 1818/1918 00000KT 6000 FEW014

Wetterbeobachtungen und Prognosen von mehr als 4000 Flughäfen (METAR und TAF Bericht).

Die verfügbaren Stationen werden durch gelbe und rote Markierungen auf der Karte dargestellt.

Führen Sie die Maus auf sie, um den Namen der Station zu sehen.

Darauf klicken, um die Beobachtung von Wetterbeobachtungen und Prognosen zu sehen.

Um die Karte zu ändern : klicken Sie auf den grünen Tasten mit einem schwarzen Kreuz Zum Vergrößern, auf den grünen Button mit einem Gedankenstrich zu verkleinern, oder auf die grünen Pfeile für benachbarte Karten.


METAR-TAF: